createdAt,value
2023-02-28T00:01:02.687Z,0.39
2023-02-28T00:04:05.614Z,0.20
2023-02-28T00:07:08.191Z,0.28
2023-02-28T00:10:15.422Z,0.21
2023-02-28T00:13:18.031Z,0.32
2023-02-28T00:16:23.136Z,0.53
2023-02-28T00:19:26.056Z,0.59
2023-02-28T00:22:29.276Z,0.43
2023-02-28T00:25:31.949Z,0.29
2023-02-28T00:28:35.333Z,0.22
2023-02-28T00:31:37.928Z,0.31
2023-02-28T00:34:41.016Z,0.38
2023-02-28T00:37:44.879Z,0.56
2023-02-28T00:40:47.887Z,0.44
2023-02-28T00:43:50.443Z,0.35
2023-02-28T00:46:55.017Z,0.39
2023-02-28T00:50:01.050Z,0.51
2023-02-28T00:53:06.375Z,0.47
2023-02-28T00:56:08.957Z,0.44
2023-02-28T00:59:12.158Z,0.30
2023-02-28T01:02:14.778Z,0.36
2023-02-28T01:05:17.832Z,0.40
2023-02-28T01:08:21.745Z,0.43
2023-02-28T01:11:26.843Z,0.48
2023-02-28T01:14:29.819Z,0.52
2023-02-28T01:17:32.879Z,0.57
2023-02-28T01:20:40.101Z,0.67
2023-02-28T01:23:46.043Z,0.63
2023-02-28T01:26:48.594Z,0.69
2023-02-28T01:29:52.098Z,0.76
2023-02-28T01:32:54.606Z,0.76
2023-02-28T01:36:02.380Z,0.83
2023-02-28T01:39:05.456Z,0.61
2023-02-28T01:42:10.814Z,0.75
2023-02-28T01:45:32.715Z,0.74
2023-02-28T01:48:39.690Z,0.74
2023-02-28T01:51:51.416Z,0.91
2023-02-28T01:54:57.628Z,0.93
2023-02-28T01:58:03.700Z,0.82
2023-02-28T02:01:06.785Z,0.84
2023-02-28T02:04:09.779Z,0.84
2023-02-28T02:07:15.369Z,0.80
2023-02-28T02:10:22.894Z,0.74
2023-02-28T02:13:37.615Z,0.62
2023-02-28T02:17:16.768Z,0.70
2023-02-28T02:20:56.378Z,1.24
2023-02-28T02:24:13.082Z,1.00
2023-02-28T02:27:24.120Z,0.92
2023-02-28T02:30:42.658Z,0.94
2023-02-28T02:33:48.194Z,0.89
2023-02-28T02:36:58.784Z,0.88
2023-02-28T02:40:14.506Z,0.85
2023-02-28T02:43:45.585Z,0.88
2023-02-28T02:46:51.177Z,0.85
2023-02-28T02:49:57.719Z,0.90
2023-02-28T02:53:04.559Z,0.84
2023-02-28T02:56:09.183Z,0.92
2023-02-28T02:59:22.109Z,0.90
2023-02-28T03:02:29.454Z,0.74
2023-02-28T03:05:42.548Z,0.56
2023-02-28T03:08:45.508Z,0.44
2023-02-28T03:11:49.313Z,0.61
2023-02-28T03:15:13.798Z,0.71
2023-02-28T03:18:59.164Z,0.73
2023-02-28T03:22:35.845Z,0.50
2023-02-28T03:25:47.766Z,0.63
2023-02-28T03:29:04.818Z,0.66
2023-02-28T03:32:25.720Z,0.65
2023-02-28T03:35:45.897Z,0.71
2023-02-28T03:39:06.526Z,0.73
2023-02-28T03:42:16.819Z,0.71
2023-02-28T03:45:30.665Z,0.76
2023-02-28T03:48:48.314Z,0.79
2023-02-28T03:51:52.783Z,0.73
2023-02-28T03:55:01.773Z,0.79
2023-02-28T03:58:37.548Z,0.73
2023-02-28T04:01:46.063Z,0.79
2023-02-28T04:04:50.516Z,0.85
2023-02-28T04:07:53.786Z,0.97
2023-02-28T04:11:17.443Z,1.04
2023-02-28T04:14:20.386Z,0.87
2023-02-28T04:17:23.338Z,0.80
2023-02-28T04:20:26.271Z,0.76
2023-02-28T04:23:29.281Z,0.68
2023-02-28T04:26:33.099Z,0.90
2023-02-28T04:29:36.036Z,0.84
2023-02-28T04:32:38.697Z,0.99
2023-02-28T04:35:42.005Z,0.90
2023-02-28T04:38:46.013Z,0.77
2023-02-28T04:41:49.343Z,0.71
2023-02-28T04:44:51.879Z,0.72
2023-02-28T04:47:54.992Z,0.90
2023-02-28T04:51:05.180Z,0.61
2023-02-28T04:54:08.211Z,0.52
2023-02-28T04:57:10.755Z,0.62
2023-02-28T05:00:17.728Z,0.59
2023-02-28T05:03:23.208Z,0.64
2023-02-28T05:06:28.977Z,0.59
2023-02-28T05:09:31.769Z,0.63
2023-02-28T05:12:34.731Z,0.56
2023-02-28T05:15:37.471Z,0.54
2023-02-28T05:18:41.611Z,0.49
2023-02-28T05:22:02.148Z,0.64
2023-02-28T05:25:07.309Z,0.71
2023-02-28T05:28:10.364Z,0.70
2023-02-28T05:31:22.270Z,0.83
2023-02-28T05:34:25.811Z,0.71
2023-02-28T05:37:28.743Z,0.79
2023-02-28T05:40:31.512Z,0.75
2023-02-28T05:43:34.604Z,0.87
2023-02-28T05:46:37.246Z,0.82
2023-02-28T05:49:40.133Z,0.81
2023-02-28T05:52:42.956Z,0.86
2023-02-28T05:55:45.783Z,0.82
2023-02-28T05:58:51.791Z,0.84
2023-02-28T06:01:54.840Z,0.90
2023-02-28T06:04:57.762Z,1.12
2023-02-28T06:08:01.400Z,1.26
2023-02-28T06:11:05.314Z,1.20
2023-02-28T06:14:16.659Z,1.29
2023-02-28T06:17:19.529Z,1.42
2023-02-28T06:20:22.279Z,1.42
2023-02-28T06:23:25.502Z,1.52
2023-02-28T06:26:28.198Z,1.37
2023-02-28T06:29:35.382Z,1.35
2023-02-28T06:32:38.197Z,1.61
2023-02-28T06:35:41.088Z,1.58
2023-02-28T06:38:45.408Z,1.59
2023-02-28T06:41:55.375Z,1.52
2023-02-28T06:45:00.570Z,1.70
2023-02-28T06:48:03.679Z,1.52
2023-02-28T06:51:15.180Z,1.55
2023-02-28T06:54:18.057Z,1.95
2023-02-28T06:57:20.713Z,1.96
2023-02-28T07:00:24.237Z,1.80
2023-02-28T07:03:27.091Z,1.94
2023-02-28T07:06:30.589Z,2.06
2023-02-28T07:09:33.642Z,2.23
2023-02-28T07:12:37.416Z,2.34
2023-02-28T07:15:43.929Z,2.38
2023-02-28T07:18:47.804Z,2.42
2023-02-28T07:21:50.694Z,2.35
2023-02-28T07:24:57.178Z,2.16
2023-02-28T07:28:01.589Z,2.51
2023-02-28T07:31:07.416Z,2.76
2023-02-28T07:34:10.245Z,2.89
2023-02-28T07:37:13.222Z,2.94
2023-02-28T07:40:16.280Z,3.24
2023-02-28T07:43:19.859Z,3.27
2023-02-28T07:46:22.640Z,3.36
2023-02-28T07:49:28.709Z,3.40
2023-02-28T07:52:34.267Z,3.43
2023-02-28T07:55:37.547Z,3.59
2023-02-28T07:58:40.422Z,3.56
2023-02-28T08:01:45.687Z,4.08
2023-02-28T08:04:50.429Z,6.27
2023-02-28T08:07:54.349Z,5.13
2023-02-28T08:10:59.595Z,5.36
2023-02-28T08:14:03.478Z,5.45
2023-02-28T08:17:07.037Z,4.92
2023-02-28T08:20:11.449Z,5.57
2023-02-28T08:23:15.733Z,5.08
2023-02-28T08:26:19.365Z,5.67
2023-02-28T08:29:23.005Z,5.67
2023-02-28T08:32:30.051Z,5.36
2023-02-28T08:35:40.650Z,6.10
2023-02-28T08:38:47.103Z,6.23
2023-02-28T08:42:02.203Z,6.12
2023-02-28T08:45:12.050Z,6.34
2023-02-28T08:48:15.032Z,6.54
2023-02-28T08:51:19.799Z,7.11
2023-02-28T08:54:23.972Z,6.14
2023-02-28T08:57:29.381Z,7.80
2023-02-28T09:00:32.220Z,7.70
2023-02-28T09:03:34.888Z,7.69
2023-02-28T09:06:37.942Z,6.84
2023-02-28T09:09:54.888Z,5.84
2023-02-28T09:12:58.921Z,5.73
2023-02-28T09:16:04.761Z,5.50
2023-02-28T09:19:07.808Z,5.67
2023-02-28T09:22:12.188Z,5.44
2023-02-28T09:25:15.120Z,5.20
2023-02-28T09:28:18.839Z,5.33
2023-02-28T09:31:25.571Z,5.68
2023-02-28T09:34:33.393Z,5.80
2023-02-28T09:37:40.247Z,5.89
2023-02-28T09:41:15.103Z,5.68
2023-02-28T09:44:37.439Z,5.59
2023-02-28T09:47:44.870Z,6.18
2023-02-28T09:50:51.836Z,6.46
2023-02-28T09:54:01.441Z,6.10
2023-02-28T09:57:34.972Z,5.97
2023-02-28T10:00:41.433Z,6.29
2023-02-28T10:03:52.438Z,6.61
2023-02-28T10:06:55.528Z,6.75
2023-02-28T10:10:03.094Z,7.23
2023-02-28T10:13:14.888Z,7.62
2023-02-28T10:16:26.579Z,8.35
2023-02-28T10:19:44.709Z,7.16
2023-02-28T10:22:50.592Z,7.64
2023-02-28T10:26:12.980Z,7.60
2023-02-28T10:29:17.694Z,8.28
2023-02-28T10:32:24.300Z,7.30
2023-02-28T10:35:28.014Z,8.20
2023-02-28T10:38:37.731Z,7.65
2023-02-28T10:41:44.283Z,8.85
2023-02-28T10:44:46.869Z,8.29
2023-02-28T10:48:12.599Z,9.03
2023-02-28T10:51:20.314Z,8.73
2023-02-28T10:54:36.625Z,8.20
2023-02-28T10:57:39.325Z,8.29
2023-02-28T11:00:42.378Z,8.27
2023-02-28T11:03:45.858Z,8.79
2023-02-28T11:06:57.879Z,8.17
2023-02-28T11:10:00.706Z,8.39
2023-02-28T11:13:04.809Z,8.54
2023-02-28T11:16:10.657Z,8.20
2023-02-28T11:19:40.571Z,7.58
2023-02-28T11:22:47.333Z,7.44
2023-02-28T11:25:54.827Z,7.19
2023-02-28T11:29:12.542Z,7.04
2023-02-28T11:32:23.742Z,7.12
2023-02-28T11:35:35.818Z,6.65
2023-02-28T11:38:39.295Z,6.54
2023-02-28T11:42:02.755Z,7.57
2023-02-28T11:45:08.622Z,8.16
2023-02-28T11:48:23.568Z,8.26
2023-02-28T11:51:34.724Z,9.36
2023-02-28T11:55:02.710Z,9.22
2023-02-28T11:58:17.968Z,9.27
2023-02-28T12:01:39.795Z,8.82
2023-02-28T12:04:45.872Z,9.32
2023-02-28T12:08:04.187Z,8.95
2023-02-28T12:11:29.381Z,8.33
2023-02-28T12:14:51.250Z,8.60
2023-02-28T12:18:20.448Z,8.09
2023-02-28T12:21:35.438Z,8.11
2023-02-28T12:25:03.968Z,8.87
2023-02-28T12:28:12.121Z,9.43
2023-02-28T12:31:23.582Z,9.54
2023-02-28T12:34:39.616Z,9.85
2023-02-28T12:38:04.551Z,9.48
2023-02-28T12:41:17.744Z,8.41
2023-02-28T12:44:25.149Z,8.60
2023-02-28T12:47:28.616Z,7.95
2023-02-28T12:50:33.872Z,7.57
2023-02-28T12:53:58.067Z,7.92
2023-02-28T12:57:23.392Z,8.66
2023-02-28T13:00:34.689Z,8.76
2023-02-28T13:03:55.146Z,8.54
2023-02-28T13:07:25.622Z,8.90
2023-02-28T13:10:44.204Z,8.06
2023-02-28T13:13:47.195Z,8.26
2023-02-28T13:17:14.487Z,8.75
2023-02-28T13:20:39.492Z,8.28
2023-02-28T13:23:59.584Z,7.98
2023-02-28T13:27:02.609Z,7.76
2023-02-28T13:30:43.308Z,8.35
2023-02-28T13:33:58.994Z,8.04
2023-02-28T13:37:30.446Z,8.82
2023-02-28T13:40:38.913Z,8.07
2023-02-28T13:44:01.155Z,7.93
2023-02-28T13:47:03.759Z,8.38
2023-02-28T13:50:46.041Z,8.44
2023-02-28T13:54:07.574Z,7.74
2023-02-28T13:57:37.104Z,7.33
2023-02-28T14:01:07.757Z,7.52
2023-02-28T14:04:13.693Z,7.79
2023-02-28T14:07:31.129Z,7.70
2023-02-28T14:10:46.997Z,7.45
2023-02-28T14:13:51.050Z,7.26
2023-02-28T14:16:54.377Z,7.18
2023-02-28T14:19:58.765Z,7.57
2023-02-28T14:23:21.512Z,7.16
2023-02-28T14:26:54.322Z,7.32
2023-02-28T14:30:22.511Z,7.02
2023-02-28T14:33:32.594Z,7.04
2023-02-28T14:36:41.264Z,7.30
2023-02-28T14:39:46.155Z,7.46
2023-02-28T14:43:00.681Z,7.36
2023-02-28T14:46:07.068Z,6.49
2023-02-28T14:49:31.273Z,5.87
2023-02-28T14:52:57.766Z,6.21
2023-02-28T14:56:01.458Z,6.46
2023-02-28T14:59:06.427Z,6.16
2023-02-28T15:02:25.298Z,6.20
2023-02-28T15:05:31.654Z,6.29
2023-02-28T15:08:37.440Z,6.64
2023-02-28T15:12:00.847Z,6.43
2023-02-28T15:15:04.611Z,6.56
2023-02-28T15:18:13.645Z,6.32
2023-02-28T15:21:33.284Z,6.42
2023-02-28T15:24:41.759Z,6.42
2023-02-28T15:27:50.626Z,6.15
2023-02-28T15:30:58.267Z,6.20
2023-02-28T15:34:07.065Z,6.24
2023-02-28T15:38:06.745Z,6.29
2023-02-28T15:41:28.229Z,6.14
2023-02-28T15:44:37.957Z,6.01
2023-02-28T15:47:48.426Z,5.82
2023-02-28T15:50:55.055Z,5.79
2023-02-28T15:54:01.889Z,5.40
2023-02-28T15:57:09.555Z,5.46
2023-02-28T16:00:16.844Z,5.79
2023-02-28T16:03:46.631Z,5.90
2023-02-28T16:07:04.692Z,5.69
2023-02-28T16:10:10.236Z,5.51
2023-02-28T16:13:17.388Z,5.71
2023-02-28T16:16:23.039Z,5.40
2023-02-28T16:19:25.961Z,5.60
2023-02-28T16:22:28.952Z,5.48
2023-02-28T16:25:35.910Z,5.26
2023-02-28T16:28:39.709Z,5.44
2023-02-28T16:31:42.550Z,5.29
2023-02-28T16:34:45.752Z,5.19
2023-02-28T16:37:48.747Z,5.20
2023-02-28T16:40:59.908Z,5.11
2023-02-28T16:44:03.642Z,4.93
2023-02-28T16:47:07.029Z,5.03
2023-02-28T16:50:18.142Z,5.14
2023-02-28T16:53:22.112Z,4.89
2023-02-28T16:56:25.983Z,5.12
2023-02-28T16:59:30.265Z,5.01
2023-02-28T17:02:33.544Z,4.91
2023-02-28T17:05:40.664Z,4.94
2023-02-28T17:08:43.324Z,4.98
2023-02-28T17:11:47.783Z,5.29
2023-02-28T17:14:50.603Z,5.30
2023-02-28T17:17:58.608Z,5.13
2023-02-28T17:21:19.125Z,5.02
2023-02-28T17:24:30.575Z,4.98
2023-02-28T17:27:36.591Z,5.00
2023-02-28T17:30:48.115Z,5.08
2023-02-28T17:33:51.476Z,5.06
2023-02-28T17:36:54.577Z,4.79
2023-02-28T17:40:01.181Z,4.97
2023-02-28T17:43:05.018Z,4.94
2023-02-28T17:46:21.423Z,4.97
2023-02-28T17:49:24.939Z,4.88
2023-02-28T17:52:29.557Z,4.92
2023-02-28T17:55:36.288Z,4.74
2023-02-28T17:58:39.187Z,4.72
2023-02-28T18:01:44.116Z,4.98
2023-02-28T18:04:47.777Z,4.83
2023-02-28T18:07:50.865Z,5.03
2023-02-28T18:10:54.363Z,4.87
2023-02-28T18:13:59.312Z,4.76
2023-02-28T18:17:04.249Z,4.92
2023-02-28T18:20:10.470Z,4.82
2023-02-28T18:23:36.098Z,4.79
2023-02-28T18:26:40.172Z,4.75
2023-02-28T18:29:44.345Z,4.88
2023-02-28T18:32:47.467Z,4.92
2023-02-28T18:35:57.098Z,4.87
2023-02-28T18:39:17.147Z,4.98
2023-02-28T18:42:22.154Z,4.69
2023-02-28T18:45:25.843Z,4.95
2023-02-28T18:48:29.249Z,4.54
2023-02-28T18:51:34.697Z,4.92
2023-02-28T18:54:45.035Z,4.94
2023-02-28T18:58:12.032Z,4.94
2023-02-28T19:01:36.457Z,4.75
2023-02-28T19:04:42.643Z,4.86
2023-02-28T19:07:46.443Z,4.75
2023-02-28T19:10:50.210Z,4.73
2023-02-28T19:13:54.602Z,4.94
2023-02-28T19:16:58.841Z,5.05
2023-02-28T19:20:03.492Z,4.81
2023-02-28T19:23:10.492Z,4.80
2023-02-28T19:26:20.964Z,4.56
2023-02-28T19:29:24.056Z,4.81
2023-02-28T19:32:29.064Z,4.85
2023-02-28T19:35:31.942Z,5.03
2023-02-28T19:38:35.820Z,4.87
2023-02-28T19:41:38.999Z,4.75
2023-02-28T19:44:42.940Z,4.92
2023-02-28T19:47:46.410Z,4.75
2023-02-28T19:50:58.486Z,4.79
2023-02-28T19:54:01.824Z,4.72
2023-02-28T19:57:05.408Z,4.79
2023-02-28T20:00:11.730Z,4.82
2023-02-28T20:03:18.618Z,4.75
2023-02-28T20:06:22.934Z,4.65
2023-02-28T20:09:31.352Z,4.74
2023-02-28T20:12:34.866Z,4.73
2023-02-28T20:15:38.162Z,4.77
2023-02-28T20:18:44.330Z,4.66
2023-02-28T20:21:47.595Z,4.66
2023-02-28T20:24:50.969Z,4.72
2023-02-28T20:27:54.044Z,4.62
2023-02-28T20:30:58.090Z,4.46
2023-02-28T20:34:01.330Z,4.52
2023-02-28T20:37:06.867Z,4.63
2023-02-28T20:40:11.192Z,4.63
2023-02-28T20:43:15.332Z,4.50
2023-02-28T20:46:18.303Z,4.62
2023-02-28T20:49:23.968Z,4.50
2023-02-28T20:52:26.814Z,4.64
2023-02-28T20:55:30.754Z,4.52
2023-02-28T20:58:37.558Z,4.56
2023-02-28T21:01:45.251Z,4.52
2023-02-28T21:04:51.117Z,4.84
2023-02-28T21:07:58.133Z,4.80
2023-02-28T21:11:01.014Z,4.63
2023-02-28T21:14:07.737Z,4.74
2023-02-28T21:17:10.656Z,4.61
2023-02-28T21:20:21.989Z,4.62
2023-02-28T21:23:27.209Z,4.57
2023-02-28T21:26:30.791Z,4.66
2023-02-28T21:29:33.642Z,4.60
2023-02-28T21:32:38.165Z,4.67
2023-02-28T21:35:40.896Z,4.64
2023-02-28T21:38:46.096Z,4.72
2023-02-28T21:41:49.621Z,4.69
2023-02-28T21:44:52.653Z,4.51
2023-02-28T21:47:55.613Z,4.52
2023-02-28T21:51:06.684Z,4.47
2023-02-28T21:54:11.192Z,4.66
2023-02-28T21:57:16.043Z,4.65
2023-02-28T22:00:20.001Z,4.53
2023-02-28T22:03:22.863Z,4.64
2023-02-28T22:06:30.102Z,4.68
2023-02-28T22:09:33.263Z,4.45
2023-02-28T22:12:40.149Z,4.73
2023-02-28T22:15:44.392Z,4.61
2023-02-28T22:18:47.744Z,4.56
2023-02-28T22:21:54.487Z,4.65
2023-02-28T22:24:57.251Z,4.72
2023-02-28T22:28:00.244Z,4.64
2023-02-28T22:31:17.526Z,4.42
2023-02-28T22:34:20.796Z,4.60
2023-02-28T22:37:26.430Z,4.62
2023-02-28T22:40:32.354Z,4.74
2023-02-28T22:43:36.248Z,4.68
2023-02-28T22:46:39.470Z,4.72
2023-02-28T22:49:42.243Z,4.69
2023-02-28T22:52:45.516Z,4.68
2023-02-28T22:55:54.876Z,4.47
2023-02-28T22:58:59.938Z,4.53
2023-02-28T23:02:05.817Z,4.54
2023-02-28T23:05:10.034Z,4.62
2023-02-28T23:08:13.364Z,4.75
2023-02-28T23:11:25.331Z,4.64
2023-02-28T23:14:28.495Z,4.73
2023-02-28T23:17:33.916Z,4.67
2023-02-28T23:20:37.331Z,4.66
2023-02-28T23:23:40.362Z,4.72
2023-02-28T23:26:46.435Z,4.76
2023-02-28T23:29:50.531Z,4.70
2023-02-28T23:32:53.183Z,4.77
2023-02-28T23:35:56.318Z,4.59
2023-02-28T23:38:59.163Z,4.68
2023-02-28T23:42:02.291Z,4.69
2023-02-28T23:45:06.411Z,4.73
2023-02-28T23:48:09.492Z,4.75
2023-02-28T23:51:16.713Z,4.79
2023-02-28T23:54:20.321Z,4.76
2023-02-28T23:57:23.335Z,4.77
